createdAt,value
2018-03-08T00:00:44.169Z,6.29
2018-03-08T00:01:44.142Z,6.17
2018-03-08T00:02:44.108Z,6.18
2018-03-08T00:03:44.091Z,6.13
2018-03-08T00:04:44.052Z,6.13
2018-03-08T00:05:44.038Z,6.18
2018-03-08T00:06:43.996Z,6.05
2018-03-08T00:07:43.972Z,6.07
2018-03-08T00:08:43.935Z,6.06
2018-03-08T00:09:43.945Z,6.05
2018-03-08T00:10:43.886Z,6.10
2018-03-08T00:11:43.850Z,6.06
2018-03-08T00:12:43.823Z,6.06
2018-03-08T00:13:43.802Z,6.21
2018-03-08T00:14:43.764Z,6.07
2018-03-08T00:15:43.731Z,6.10
2018-03-08T00:16:43.718Z,6.10
2018-03-08T00:17:43.676Z,6.03
2018-03-08T00:18:43.658Z,6.06
2018-03-08T00:19:43.625Z,6.03
2018-03-08T00:20:43.620Z,6.13
2018-03-08T00:21:43.593Z,6.13
2018-03-08T00:22:43.537Z,6.05
2018-03-08T00:23:43.511Z,5.87
2018-03-08T00:24:43.477Z,5.91
2018-03-08T00:25:43.458Z,5.85
2018-03-08T00:26:43.419Z,5.87
2018-03-08T00:27:43.399Z,5.92
2018-03-08T00:28:43.366Z,6.05
2018-03-08T00:29:43.331Z,6.09
2018-03-08T00:30:43.296Z,6.10
2018-03-08T00:31:43.298Z,6.06
2018-03-08T00:32:43.286Z,6.05
2018-03-08T00:33:43.212Z,6.03
2018-03-08T00:34:43.225Z,6.06
2018-03-08T00:35:43.163Z,5.96
2018-03-08T00:36:43.137Z,5.99
2018-03-08T00:37:43.127Z,5.96
2018-03-08T00:38:43.075Z,5.85
2018-03-08T00:39:43.044Z,5.85
2018-03-08T00:40:43.012Z,5.85
2018-03-08T00:41:42.981Z,5.75
2018-03-08T00:42:43.013Z,5.87
2018-03-08T00:43:42.928Z,5.77
2018-03-08T00:44:42.896Z,5.73
2018-03-08T00:45:42.859Z,5.77
2018-03-08T00:46:42.837Z,5.73
2018-03-08T00:47:42.827Z,5.80
2018-03-08T00:48:42.803Z,5.80
2018-03-08T00:49:42.758Z,5.85
2018-03-08T00:50:42.714Z,5.84
2018-03-08T00:51:42.728Z,5.73
2018-03-08T00:52:42.667Z,5.77
2018-03-08T00:53:42.629Z,5.81
2018-03-08T00:54:42.600Z,5.81
2018-03-08T00:55:42.579Z,5.80
2018-03-08T00:56:42.537Z,5.77
2018-03-08T00:57:42.556Z,5.70
2018-03-08T00:58:42.522Z,5.70
2018-03-08T00:59:42.458Z,5.73
2018-03-08T01:00:42.454Z,5.73
2018-03-08T01:01:42.399Z,5.72
2018-03-08T01:02:42.368Z,5.70
2018-03-08T01:03:42.357Z,5.67
2018-03-08T01:04:42.315Z,5.66
2018-03-08T01:05:42.284Z,5.66
2018-03-08T01:06:42.254Z,5.63
2018-03-08T01:07:43.114Z,5.69
2018-03-08T01:08:42.189Z,5.75
2018-03-08T01:09:42.172Z,5.64
2018-03-08T01:10:42.138Z,5.70
2018-03-08T01:11:42.130Z,5.67
2018-03-08T01:12:42.125Z,5.75
2018-03-08T01:13:42.063Z,5.78
2018-03-08T01:14:42.065Z,5.81
2018-03-08T01:15:42.002Z,5.73
2018-03-08T01:16:41.972Z,5.60
2018-03-08T01:17:41.931Z,5.60
2018-03-08T01:18:41.911Z,5.57
2018-03-08T01:19:41.861Z,5.62
2018-03-08T01:20:41.930Z,5.62
2018-03-08T01:21:41.811Z,5.55
2018-03-08T01:22:41.792Z,5.69
2018-03-08T01:23:41.749Z,5.57
2018-03-08T01:24:41.734Z,5.66
2018-03-08T01:25:41.693Z,5.55
2018-03-08T01:26:41.670Z,5.62
2018-03-08T01:27:41.630Z,5.64
2018-03-08T01:28:41.613Z,5.64
2018-03-08T01:29:41.596Z,5.62
2018-03-08T01:30:41.541Z,5.62
2018-03-08T01:31:41.506Z,5.60
2018-03-08T01:32:41.487Z,5.51
2018-03-08T01:33:41.459Z,5.57
2018-03-08T01:34:41.433Z,5.59
2018-03-08T01:35:41.404Z,5.59
2018-03-08T01:36:41.372Z,5.57
2018-03-08T01:37:41.369Z,5.62
2018-03-08T01:38:41.312Z,5.67
2018-03-08T01:39:41.286Z,5.59
2018-03-08T01:40:41.242Z,5.49
2018-03-08T01:41:41.256Z,5.60
2018-03-08T01:42:41.210Z,5.63
2018-03-08T01:43:41.164Z,5.62
2018-03-08T01:44:41.168Z,5.63
2018-03-08T01:45:41.099Z,5.62
2018-03-08T01:46:41.070Z,5.67
2018-03-08T01:47:41.080Z,5.72
2018-03-08T01:48:41.005Z,5.75
2018-03-08T01:49:40.987Z,5.67
2018-03-08T01:50:40.965Z,5.69
2018-03-08T01:51:40.921Z,5.69
2018-03-08T01:52:40.927Z,5.80
2018-03-08T01:53:40.883Z,5.73
2018-03-08T01:54:40.837Z,5.59
2018-03-08T01:55:40.824Z,5.55
2018-03-08T01:56:40.768Z,5.66
2018-03-08T01:57:40.745Z,5.64
2018-03-08T01:58:40.735Z,5.73
2018-03-08T01:59:40.686Z,5.69
2018-03-08T02:00:40.656Z,5.73
2018-03-08T02:01:40.632Z,5.64
2018-03-08T02:02:40.607Z,5.66
2018-03-08T02:03:40.599Z,5.62
2018-03-08T02:04:40.560Z,5.66
2018-03-08T02:05:40.503Z,5.67
2018-03-08T02:06:40.487Z,5.60
2018-03-08T02:07:40.446Z,5.63
2018-03-08T02:08:40.428Z,5.62
2018-03-08T02:09:40.391Z,5.57
2018-03-08T02:10:40.360Z,5.55
2018-03-08T02:11:40.332Z,5.66
2018-03-08T02:12:40.324Z,5.66
2018-03-08T02:13:40.286Z,5.63
2018-03-08T02:14:40.244Z,5.59
2018-03-08T02:15:40.227Z,5.62
2018-03-08T02:16:40.180Z,5.55
2018-03-08T02:17:40.175Z,5.54
2018-03-08T02:18:40.133Z,5.55
2018-03-08T02:19:40.097Z,5.62
2018-03-08T02:20:40.079Z,5.59
2018-03-08T02:21:40.047Z,5.66
2018-03-08T02:22:40.016Z,5.63
2018-03-08T02:23:39.990Z,5.73
2018-03-08T02:24:39.945Z,5.67
2018-03-08T02:25:39.931Z,5.77
2018-03-08T02:26:39.895Z,5.67
2018-03-08T02:27:39.862Z,5.69
2018-03-08T02:28:39.889Z,5.66
2018-03-08T02:29:39.825Z,5.73
2018-03-08T02:30:39.779Z,5.78
2018-03-08T02:31:39.778Z,5.64
2018-03-08T02:32:39.727Z,5.70
2018-03-08T02:33:39.685Z,5.67
2018-03-08T02:34:39.669Z,5.67
2018-03-08T02:35:39.645Z,5.66
2018-03-08T02:36:39.649Z,5.67
2018-03-08T02:37:39.578Z,5.85
2018-03-08T02:38:39.535Z,5.87
2018-03-08T02:39:39.508Z,5.78
2018-03-08T02:40:39.478Z,5.85
2018-03-08T02:41:39.448Z,5.78
2018-03-08T02:42:39.425Z,5.85
2018-03-08T02:43:39.412Z,5.80
2018-03-08T02:44:39.366Z,5.81
2018-03-08T02:45:39.329Z,5.80
2018-03-08T02:46:39.320Z,5.84
2018-03-08T02:47:39.274Z,5.77
2018-03-08T02:48:39.262Z,5.84
2018-03-08T02:49:39.248Z,5.82
2018-03-08T02:50:39.179Z,5.75
2018-03-08T02:51:39.191Z,5.84
2018-03-08T02:52:39.131Z,5.77
2018-03-08T02:53:39.103Z,5.78
2018-03-08T02:54:39.100Z,5.84
2018-03-08T02:55:39.056Z,5.81
2018-03-08T02:56:39.018Z,5.82
2018-03-08T02:57:38.994Z,5.80
2018-03-08T02:58:38.949Z,5.82
2018-03-08T02:59:38.928Z,5.77
2018-03-08T03:00:38.907Z,5.84
2018-03-08T03:01:38.872Z,5.80
2018-03-08T03:02:38.844Z,5.91
2018-03-08T03:03:38.816Z,5.85
2018-03-08T03:04:38.778Z,5.87
2018-03-08T03:05:38.785Z,5.98
2018-03-08T03:06:38.718Z,5.95
2018-03-08T03:07:38.687Z,5.89
2018-03-08T03:08:38.672Z,5.82
2018-03-08T03:09:38.663Z,5.81
2018-03-08T03:10:38.618Z,5.81
2018-03-08T03:11:38.573Z,5.81
2018-03-08T03:12:38.565Z,5.81
2018-03-08T03:13:38.514Z,5.85
2018-03-08T03:14:38.481Z,5.78
2018-03-08T03:15:38.448Z,5.82
2018-03-08T03:16:38.437Z,5.77
2018-03-08T03:17:38.410Z,5.81
2018-03-08T03:18:38.420Z,5.70
2018-03-08T03:19:38.341Z,5.75
2018-03-08T03:20:38.337Z,5.81
2018-03-08T03:21:38.277Z,5.89
2018-03-08T03:22:38.279Z,5.81
2018-03-08T03:23:38.250Z,5.78
2018-03-08T03:24:38.209Z,5.87
2018-03-08T03:25:38.197Z,5.96
2018-03-08T03:26:38.165Z,5.99
2018-03-08T03:27:38.644Z,6.10
2018-03-08T03:28:38.074Z,6.03
2018-03-08T03:29:38.080Z,6.20
2018-03-08T03:30:38.016Z,6.17
2018-03-08T03:31:37.994Z,6.05
2018-03-08T03:32:37.984Z,6.05
2018-03-08T03:33:37.947Z,6.06
2018-03-08T03:34:37.913Z,6.06
2018-03-08T03:35:37.878Z,6.05
2018-03-08T03:36:37.834Z,6.00
2018-03-08T03:37:37.834Z,6.13
2018-03-08T03:38:37.807Z,6.10
2018-03-08T03:39:37.776Z,6.09
2018-03-08T03:40:37.754Z,6.03
2018-03-08T03:41:37.719Z,6.00
2018-03-08T03:42:37.677Z,6.09
2018-03-08T03:43:37.654Z,6.00
2018-03-08T03:44:37.661Z,6.03
2018-03-08T03:45:37.592Z,6.06
2018-03-08T03:46:37.572Z,6.14
2018-03-08T03:47:37.564Z,6.13
2018-03-08T03:48:37.497Z,6.15
2018-03-08T03:49:37.489Z,6.14
2018-03-08T03:50:37.437Z,6.06
2018-03-08T03:51:37.430Z,6.00
2018-03-08T03:52:37.409Z,5.91
2018-03-08T03:53:37.341Z,5.87
2018-03-08T03:54:37.340Z,5.95
2018-03-08T03:55:37.321Z,5.96
2018-03-08T03:56:37.279Z,5.92
2018-03-08T03:57:37.242Z,5.92
2018-03-08T03:58:37.213Z,6.02
2018-03-08T03:59:37.184Z,5.99
2018-03-08T04:00:37.175Z,5.95
2018-03-08T04:01:37.137Z,6.00
2018-03-08T04:02:37.103Z,5.99
2018-03-08T04:03:37.093Z,5.99
2018-03-08T04:04:37.023Z,6.05
2018-03-08T04:05:37.023Z,6.02
2018-03-08T04:06:36.973Z,6.03
2018-03-08T04:07:36.946Z,5.92
2018-03-08T04:08:36.941Z,6.03
2018-03-08T04:09:36.909Z,6.06
2018-03-08T04:10:36.853Z,6.06
2018-03-08T04:11:36.815Z,5.96
2018-03-08T04:12:36.785Z,5.98
2018-03-08T04:13:36.809Z,5.95
2018-03-08T04:14:36.774Z,6.03
2018-03-08T04:15:36.720Z,5.96
2018-03-08T04:16:36.685Z,5.98
2018-03-08T04:17:36.669Z,5.99
2018-03-08T04:18:36.637Z,5.92
2018-03-08T04:19:36.629Z,6.00
2018-03-08T04:20:36.577Z,6.05
2018-03-08T04:21:36.552Z,6.00
2018-03-08T04:22:36.522Z,6.05
2018-03-08T04:23:36.500Z,6.05
2018-03-08T04:24:36.472Z,6.05
2018-03-08T04:25:36.445Z,6.00
2018-03-08T04:26:36.388Z,6.00
2018-03-08T04:27:36.355Z,6.06
2018-03-08T04:28:36.341Z,6.02
2018-03-08T04:29:36.333Z,6.10
2018-03-08T04:30:36.287Z,6.05
2018-03-08T04:31:36.269Z,6.05
2018-03-08T04:32:36.226Z,6.09
2018-03-08T04:33:36.182Z,6.18
2018-03-08T04:34:36.188Z,6.02
2018-03-08T04:35:36.142Z,6.09
2018-03-08T04:36:36.110Z,6.09
2018-03-08T04:37:36.107Z,6.05
2018-03-08T04:38:36.039Z,6.10
2018-03-08T04:39:36.042Z,6.14
2018-03-08T04:40:35.980Z,6.14
2018-03-08T04:41:35.976Z,6.17
2018-03-08T04:42:35.950Z,6.13
2018-03-08T04:43:35.933Z,6.13
2018-03-08T04:44:35.869Z,6.06
2018-03-08T04:45:35.852Z,6.21
2018-03-08T04:46:35.805Z,6.09
2018-03-08T04:47:35.796Z,5.99
2018-03-08T04:48:35.763Z,6.00
2018-03-08T04:49:35.715Z,6.06
2018-03-08T04:50:35.708Z,5.95
2018-03-08T04:51:35.683Z,5.99
2018-03-08T04:52:35.667Z,5.95
2018-03-08T04:53:35.639Z,5.92
2018-03-08T04:54:35.598Z,5.96
2018-03-08T04:55:35.548Z,6.02
2018-03-08T04:56:35.532Z,6.00
2018-03-08T04:57:35.523Z,5.85
2018-03-08T04:58:35.485Z,5.82
2018-03-08T04:59:35.466Z,5.84
2018-03-08T05:00:35.417Z,5.87
2018-03-08T05:01:35.386Z,5.87
2018-03-08T05:02:35.369Z,5.89
2018-03-08T05:03:35.318Z,6.05
2018-03-08T05:04:35.296Z,6.03
2018-03-08T05:05:35.261Z,6.00
2018-03-08T05:06:35.229Z,6.15
2018-03-08T05:07:35.213Z,6.10
2018-03-08T05:08:35.184Z,6.05
2018-03-08T05:09:35.145Z,6.09
2018-03-08T05:10:35.130Z,6.10
2018-03-08T05:11:35.079Z,6.10
2018-03-08T05:12:35.051Z,6.05
2018-03-08T05:13:35.032Z,6.07
2018-03-08T05:14:35.001Z,6.02
2018-03-08T05:15:34.977Z,6.03
2018-03-08T05:16:34.945Z,6.10
2018-03-08T05:17:34.961Z,6.10
2018-03-08T05:18:36.360Z,6.15
2018-03-08T05:19:34.865Z,6.17
2018-03-08T05:20:34.825Z,6.10
2018-03-08T05:21:34.806Z,6.03
2018-03-08T05:22:34.841Z,6.07
2018-03-08T05:23:34.734Z,6.05
2018-03-08T05:24:34.702Z,5.99
2018-03-08T05:25:34.696Z,6.10
2018-03-08T05:26:34.647Z,6.13
2018-03-08T05:27:34.632Z,6.07
2018-03-08T05:28:35.146Z,6.20
2018-03-08T05:29:34.566Z,6.13
2018-03-08T05:30:34.842Z,6.14
2018-03-08T05:31:35.879Z,6.13
2018-03-08T05:32:34.467Z,6.20
2018-03-08T05:33:34.442Z,6.07
2018-03-08T05:34:34.418Z,6.29
2018-03-08T05:35:34.382Z,6.33
2018-03-08T05:36:34.363Z,6.24
2018-03-08T05:37:34.324Z,6.20
2018-03-08T05:38:34.318Z,6.10
2018-03-08T05:39:34.276Z,6.17
2018-03-08T05:40:34.241Z,6.15
2018-03-08T05:41:34.282Z,6.18
2018-03-08T05:42:34.179Z,6.21
2018-03-08T05:43:34.150Z,6.15
2018-03-08T05:44:34.126Z,6.14
2018-03-08T05:45:34.097Z,6.15
2018-03-08T05:46:34.074Z,6.03
2018-03-08T05:47:34.041Z,6.06
2018-03-08T05:48:34.006Z,6.14
2018-03-08T05:49:33.977Z,6.09
2018-03-08T05:50:33.981Z,6.07
2018-03-08T05:51:33.968Z,6.15
2018-03-08T05:52:33.899Z,6.17
2018-03-08T05:53:33.863Z,6.18
2018-03-08T05:54:33.838Z,6.17
2018-03-08T05:55:33.811Z,6.13
2018-03-08T05:56:33.785Z,6.13
2018-03-08T05:57:33.746Z,6.15
2018-03-08T05:58:33.715Z,6.14
2018-03-08T05:59:33.703Z,6.18
2018-03-08T06:00:33.669Z,6.09
2018-03-08T06:01:33.628Z,6.09
2018-03-08T06:02:33.620Z,6.14
2018-03-08T06:03:33.600Z,6.14
2018-03-08T06:04:33.546Z,6.06
2018-03-08T06:05:33.532Z,6.07
2018-03-08T06:06:33.494Z,6.06
2018-03-08T06:07:33.461Z,6.13
2018-03-08T06:08:33.437Z,6.13
2018-03-08T06:09:33.441Z,6.17
2018-03-08T06:10:33.402Z,6.14
2018-03-08T06:11:33.363Z,6.17
2018-03-08T06:12:33.313Z,6.28
2018-03-08T06:13:33.309Z,6.26
2018-03-08T06:14:33.290Z,6.24
2018-03-08T06:15:33.261Z,6.21
2018-03-08T06:16:33.209Z,6.25
2018-03-08T06:17:33.183Z,6.21
2018-03-08T06:18:33.138Z,6.31
2018-03-08T06:19:33.146Z,6.40
2018-03-08T06:20:33.125Z,6.36
2018-03-08T06:21:33.096Z,6.43
2018-03-08T06:22:33.038Z,6.44
2018-03-08T06:23:33.033Z,6.46
2018-03-08T06:24:32.993Z,6.40
2018-03-08T06:25:32.993Z,6.37
2018-03-08T06:26:32.957Z,6.36
2018-03-08T06:27:32.897Z,6.21
2018-03-08T06:28:32.870Z,6.33
2018-03-08T06:29:32.824Z,6.33
2018-03-08T06:30:32.828Z,6.31
2018-03-08T06:31:32.785Z,6.37
2018-03-08T06:32:32.740Z,6.37
2018-03-08T06:33:32.732Z,6.40
2018-03-08T06:34:32.687Z,6.54
2018-03-08T06:35:32.646Z,6.44
2018-03-08T06:36:32.657Z,6.49
2018-03-08T06:37:32.751Z,6.55
2018-03-08T06:38:32.577Z,6.65
2018-03-08T06:39:32.657Z,6.72
2018-03-08T06:40:32.592Z,6.75
2018-03-08T06:41:32.531Z,6.76
2018-03-08T06:42:32.471Z,6.79
2018-03-08T06:43:32.422Z,6.83
2018-03-08T06:44:32.406Z,6.82
2018-03-08T06:45:32.385Z,6.82
2018-03-08T06:46:32.360Z,6.86
2018-03-08T06:47:32.322Z,6.80
2018-03-08T06:48:32.297Z,6.73
2018-03-08T06:49:32.247Z,6.73
2018-03-08T06:50:32.251Z,6.76
2018-03-08T06:51:32.232Z,6.76
2018-03-08T06:52:32.163Z,6.65
2018-03-08T06:53:32.134Z,6.61
2018-03-08T06:54:32.125Z,6.52
2018-03-08T06:55:32.085Z,6.47
2018-03-08T06:56:32.100Z,6.44
2018-03-08T06:57:32.032Z,6.42
2018-03-08T06:58:32.045Z,6.40
2018-03-08T06:59:31.986Z,6.33
2018-03-08T07:00:31.967Z,6.40
2018-03-08T07:01:31.907Z,6.28
2018-03-08T07:02:31.896Z,6.31
2018-03-08T07:03:31.894Z,6.20
2018-03-08T07:04:31.829Z,6.10
2018-03-08T07:05:31.851Z,6.10
2018-03-08T07:06:31.814Z,6.14
2018-03-08T07:07:31.742Z,6.06
2018-03-08T07:08:31.721Z,6.06
2018-03-08T07:09:31.928Z,6.03
2018-03-08T07:10:31.670Z,6.18
2018-03-08T07:11:31.658Z,6.14
2018-03-08T07:12:31.604Z,6.15
2018-03-08T07:13:31.641Z,6.15
2018-03-08T07:14:31.600Z,6.14
2018-03-08T07:15:31.511Z,6.13
2018-03-08T07:16:31.496Z,6.05
2018-03-08T07:17:31.483Z,6.10
2018-03-08T07:18:31.428Z,6.13
2018-03-08T07:19:31.449Z,6.06
2018-03-08T07:20:31.416Z,6.14
2018-03-08T07:21:31.374Z,6.05
2018-03-08T07:22:31.427Z,6.03
2018-03-08T07:23:31.322Z,6.10
2018-03-08T07:24:31.301Z,6.14
2018-03-08T07:25:31.245Z,6.03
2018-03-08T07:26:31.240Z,6.02
2018-03-08T07:27:31.179Z,6.02
2018-03-08T07:28:31.193Z,6.07
2018-03-08T07:29:31.111Z,6.21
2018-03-08T07:30:31.121Z,6.09
2018-03-08T07:31:31.061Z,6.07
2018-03-08T07:32:31.403Z,6.14
2018-03-08T07:33:31.025Z,6.05
2018-03-08T07:34:30.999Z,6.05
2018-03-08T07:35:30.944Z,6.10
2018-03-08T07:36:30.951Z,6.09
2018-03-08T07:37:30.920Z,6.10
2018-03-08T07:38:30.854Z,6.17
2018-03-08T07:39:30.834Z,6.07
2018-03-08T07:40:30.841Z,6.15
2018-03-08T07:41:30.762Z,6.29
2018-03-08T07:42:30.776Z,6.33
2018-03-08T07:43:30.744Z,6.31
2018-03-08T07:44:30.890Z,6.18
2018-03-08T07:45:30.665Z,6.25
2018-03-08T07:46:30.661Z,6.29
2018-03-08T07:47:30.593Z,6.29
2018-03-08T07:48:30.601Z,6.31
2018-03-08T07:49:30.530Z,6.29
2018-03-08T07:50:30.599Z,6.31
2018-03-08T07:51:30.483Z,6.28
2018-03-08T07:52:30.446Z,6.26
2018-03-08T07:53:30.426Z,6.29
2018-03-08T07:54:30.490Z,6.31
2018-03-08T07:55:30.383Z,6.29
2018-03-08T07:56:30.400Z,6.28
2018-03-08T07:57:30.357Z,6.28
2018-03-08T07:58:30.320Z,6.24
2018-03-08T07:59:30.247Z,6.14
2018-03-08T08:00:30.223Z,6.15
2018-03-08T08:01:30.278Z,6.31
2018-03-08T08:02:30.187Z,6.29
2018-03-08T08:03:30.143Z,6.29
2018-03-08T08:04:30.125Z,6.36
2018-03-08T08:05:30.073Z,6.47
2018-03-08T08:06:30.118Z,6.55
2018-03-08T08:07:30.099Z,6.58
2018-03-08T08:08:30.030Z,6.60
2018-03-08T08:09:30.025Z,6.55
2018-03-08T08:10:29.942Z,6.64
2018-03-08T08:11:29.918Z,6.52
2018-03-08T08:12:29.927Z,6.54
2018-03-08T08:13:29.871Z,6.55
2018-03-08T08:14:29.847Z,6.64
2018-03-08T08:15:29.806Z,6.61
2018-03-08T08:16:29.750Z,6.64
2018-03-08T08:17:29.740Z,6.76
2018-03-08T08:18:29.723Z,6.79
2018-03-08T08:19:29.718Z,6.82
2018-03-08T08:20:29.662Z,6.78
2018-03-08T08:21:29.652Z,6.85
2018-03-08T08:22:29.577Z,6.88
2018-03-08T08:23:29.575Z,6.97
2018-03-08T08:24:29.521Z,6.93
2018-03-08T08:25:29.502Z,7.03
2018-03-08T08:26:29.482Z,7.04
2018-03-08T08:27:29.477Z,7.05
2018-03-08T08:28:29.422Z,7.09
2018-03-08T08:29:29.381Z,7.01
2018-03-08T08:30:29.351Z,7.01
2018-03-08T08:31:29.337Z,6.98
2018-03-08T08:32:29.316Z,7.08
2018-03-08T08:33:29.281Z,7.00
2018-03-08T08:34:29.263Z,6.86
2018-03-08T08:35:29.229Z,6.88
2018-03-08T08:36:29.225Z,6.95
2018-03-08T08:37:29.171Z,7.00
2018-03-08T08:38:29.152Z,7.00
2018-03-08T08:39:29.093Z,7.04
2018-03-08T08:40:29.119Z,7.16
2018-03-08T08:41:29.083Z,7.00
2018-03-08T08:42:29.007Z,7.16
2018-03-08T08:43:28.984Z,7.22
2018-03-08T08:44:28.975Z,7.16
2018-03-08T08:45:29.062Z,7.19
2018-03-08T08:46:28.928Z,7.21
2018-03-08T08:47:28.877Z,7.19
2018-03-08T08:48:28.843Z,7.23
2018-03-08T08:49:28.829Z,7.18
2018-03-08T08:50:28.821Z,7.18
2018-03-08T08:51:28.809Z,7.13
2018-03-08T08:52:28.789Z,7.21
2018-03-08T08:53:28.719Z,7.26
2018-03-08T08:54:28.687Z,7.29
2018-03-08T08:55:28.664Z,7.29
2018-03-08T08:56:28.610Z,7.36
2018-03-08T08:57:28.598Z,7.30
2018-03-08T08:58:28.569Z,7.36
2018-03-08T08:59:28.536Z,7.40
2018-03-08T09:00:28.499Z,7.47
2018-03-08T09:01:28.495Z,7.49
2018-03-08T09:02:28.450Z,7.63
2018-03-08T09:03:28.428Z,7.56
2018-03-08T09:04:28.419Z,7.63
2018-03-08T09:05:28.371Z,7.75
2018-03-08T09:06:28.333Z,7.71
2018-03-08T09:07:28.308Z,7.59
2018-03-08T09:08:28.294Z,7.56
2018-03-08T09:09:28.261Z,7.71
2018-03-08T09:10:28.299Z,7.68
2018-03-08T09:11:28.203Z,7.70
2018-03-08T09:12:28.204Z,7.83
2018-03-08T09:13:28.159Z,7.78
2018-03-08T09:14:28.126Z,7.89
2018-03-08T09:15:28.084Z,8.06
2018-03-08T09:16:28.064Z,8.03
2018-03-08T09:17:28.188Z,7.98
2018-03-08T09:18:28.009Z,8.09
2018-03-08T09:19:28.004Z,8.10
2018-03-08T09:20:27.981Z,8.22
2018-03-08T09:21:27.941Z,8.24
2018-03-08T09:22:27.938Z,8.35
2018-03-08T09:23:27.860Z,8.36
2018-03-08T09:24:27.839Z,8.49
2018-03-08T09:25:27.818Z,8.44
2018-03-08T09:26:27.787Z,8.44
2018-03-08T09:27:27.772Z,8.46
2018-03-08T09:28:27.721Z,8.50
2018-03-08T09:29:27.717Z,8.47
2018-03-08T09:30:27.690Z,8.47
2018-03-08T09:31:27.692Z,8.44
2018-03-08T09:32:27.630Z,8.49
2018-03-08T09:33:27.614Z,8.58
2018-03-08T09:34:27.573Z,8.61
2018-03-08T09:35:27.580Z,8.52
2018-03-08T09:36:27.511Z,8.53
2018-03-08T09:37:27.483Z,8.57
2018-03-08T09:38:27.497Z,8.53
2018-03-08T09:39:27.445Z,8.58
2018-03-08T09:40:27.426Z,8.54
2018-03-08T09:41:27.375Z,8.67
2018-03-08T09:42:27.354Z,8.68
2018-03-08T09:43:27.331Z,8.68
2018-03-08T09:44:27.328Z,8.69
2018-03-08T09:45:27.298Z,8.76
2018-03-08T09:46:28.214Z,8.82
2018-03-08T09:47:27.230Z,8.82
2018-03-08T09:48:27.183Z,8.94
2018-03-08T09:49:27.182Z,8.97
2018-03-08T09:50:27.175Z,9.01
2018-03-08T09:51:27.129Z,8.90
2018-03-08T09:52:27.101Z,8.87
2018-03-08T09:53:27.054Z,9.00
2018-03-08T09:54:27.041Z,8.92
2018-03-08T09:55:27.013Z,9.08
2018-03-08T09:56:26.981Z,9.09
2018-03-08T09:57:27.003Z,9.04
2018-03-08T09:58:26.947Z,9.21
2018-03-08T09:59:26.934Z,9.24
2018-03-08T10:00:26.886Z,9.42
2018-03-08T10:01:26.854Z,9.56
2018-03-08T10:02:26.829Z,9.45
2018-03-08T10:03:26.796Z,9.38
2018-03-08T10:04:26.759Z,9.52
2018-03-08T10:05:26.756Z,9.55
2018-03-08T10:06:26.716Z,9.59
2018-03-08T10:07:26.706Z,9.63
2018-03-08T10:08:26.685Z,9.71
2018-03-08T10:09:26.645Z,9.77
2018-03-08T10:10:26.615Z,9.71
2018-03-08T10:11:26.580Z,9.77
2018-03-08T10:12:26.564Z,9.74
2018-03-08T10:13:26.578Z,9.80
2018-03-08T10:14:26.498Z,9.80
2018-03-08T10:15:27.196Z,9.93
2018-03-08T10:16:26.460Z,10.08
2018-03-08T10:17:26.418Z,10.08
2018-03-08T10:18:26.397Z,10.11
2018-03-08T10:19:26.420Z,10.10
2018-03-08T10:20:26.358Z,10.08
2018-03-08T10:21:44.375Z,9.89
2018-03-08T10:22:26.429Z,9.92
2018-03-08T10:23:26.270Z,9.85
2018-03-08T10:24:26.251Z,9.81
2018-03-08T10:25:26.228Z,9.93
2018-03-08T10:26:26.231Z,9.92
2018-03-08T10:27:26.168Z,10.07
2018-03-08T10:28:26.174Z,10.20
2018-03-08T10:29:26.100Z,10.17
2018-03-08T10:30:26.078Z,10.23
2018-03-08T10:31:26.066Z,10.28
2018-03-08T10:32:26.019Z,10.41
2018-03-08T10:33:26.020Z,10.38
2018-03-08T10:34:26.011Z,10.41
2018-03-08T10:35:25.962Z,10.49
2018-03-08T10:36:25.973Z,10.52
2018-03-08T10:37:26.070Z,10.42
2018-03-08T10:38:25.899Z,10.36
2018-03-08T10:43:25.743Z,10.46
2018-03-08T10:44:25.748Z,10.46
2018-03-08T10:45:25.713Z,10.41
2018-03-08T10:46:25.659Z,10.32
2018-03-08T10:47:25.648Z,10.25
2018-03-08T10:48:25.639Z,10.17
2018-03-08T10:49:25.585Z,10.25
2018-03-08T10:50:25.630Z,10.32
2018-03-08T10:51:25.560Z,10.20
2018-03-08T10:52:25.506Z,10.18
2018-03-08T10:53:25.517Z,10.14
2018-03-08T10:54:25.508Z,10.18
2018-03-08T10:55:25.497Z,10.15
2018-03-08T10:56:25.417Z,10.18
2018-03-08T10:57:25.419Z,10.23
2018-03-08T10:58:25.359Z,10.29
2018-03-08T10:59:25.345Z,10.38
2018-03-08T11:00:25.350Z,10.41
2018-03-08T11:01:25.307Z,10.25
2018-03-08T11:02:25.249Z,10.23
2018-03-08T11:03:25.248Z,10.26
2018-03-08T11:04:26.549Z,10.32
2018-03-08T11:05:25.181Z,10.28
2018-03-08T11:06:25.219Z,10.31
2018-03-08T11:07:25.157Z,10.26
2018-03-08T11:08:25.125Z,10.31
2018-03-08T11:09:25.091Z,10.21
2018-03-08T11:10:25.077Z,10.21
2018-03-08T11:11:25.023Z,10.25
2018-03-08T11:12:25.047Z,10.20
2018-03-08T11:13:24.972Z,10.26
2018-03-08T11:14:24.967Z,10.25
2018-03-08T11:15:24.931Z,10.14
2018-03-08T11:16:24.946Z,10.03
2018-03-08T11:17:24.876Z,10.10
2018-03-08T11:18:24.848Z,10.08
2018-03-08T11:19:24.841Z,10.00
2018-03-08T11:20:24.848Z,10.08
2018-03-08T11:21:24.783Z,10.10
2018-03-08T11:22:24.785Z,10.11
2018-03-08T11:23:24.764Z,10.17
2018-03-08T11:24:24.779Z,10.20
2018-03-08T11:25:24.685Z,10.18
2018-03-08T11:26:24.764Z,10.21
2018-03-08T11:27:25.001Z,10.18
2018-03-08T11:28:24.610Z,10.05
2018-03-08T11:29:24.610Z,10.13
2018-03-08T11:30:24.602Z,10.26
2018-03-08T11:31:24.520Z,10.21
2018-03-08T11:32:24.512Z,10.17
2018-03-08T11:33:24.485Z,10.20
2018-03-08T11:34:24.530Z,10.26
2018-03-08T11:35:24.481Z,10.26
2018-03-08T11:36:24.445Z,10.29
2018-03-08T11:37:24.384Z,10.28
2018-03-08T11:38:24.371Z,10.25
2018-03-08T11:39:24.364Z,10.31
2018-03-08T11:40:24.344Z,10.25
2018-03-08T11:41:24.294Z,10.29
2018-03-08T11:42:24.265Z,10.31
2018-03-08T11:43:24.246Z,10.29
2018-03-08T11:44:24.231Z,10.26
2018-03-08T11:45:24.226Z,10.41
2018-03-08T11:46:24.161Z,10.36
2018-03-08T11:47:24.741Z,10.32
2018-03-08T11:48:24.107Z,10.38
2018-03-08T11:49:24.077Z,10.31
2018-03-08T11:50:24.059Z,10.28
2018-03-08T11:51:24.036Z,10.21
2018-03-08T11:52:24.015Z,10.25
2018-03-08T11:53:23.980Z,10.21
2018-03-08T11:54:23.984Z,10.18
2018-03-08T11:55:24.008Z,10.13
2018-03-08T11:56:23.957Z,10.14
2018-03-08T11:57:23.881Z,10.20
2018-03-08T11:58:23.887Z,10.20
2018-03-08T11:59:23.821Z,10.33
2018-03-08T12:00:23.915Z,10.59
2018-03-08T12:01:23.760Z,10.70
2018-03-08T12:02:23.750Z,10.87
2018-03-08T12:03:23.796Z,10.83
2018-03-08T12:04:23.744Z,10.90
2018-03-08T12:05:23.696Z,10.90
2018-03-08T12:06:23.684Z,10.85
2018-03-08T12:07:23.956Z,10.91
2018-03-08T12:08:24.082Z,10.98
2018-03-08T12:09:23.914Z,11.02
2018-03-08T12:10:23.659Z,10.97
2018-03-08T12:11:23.737Z,10.84
2018-03-08T12:12:24.171Z,10.69
2018-03-08T12:13:23.614Z,10.77
2018-03-08T12:14:23.857Z,10.70
2018-03-08T12:15:23.752Z,10.87
2018-03-08T12:16:23.771Z,10.85
2018-03-08T12:17:23.529Z,10.85
2018-03-08T12:18:23.731Z,10.95
2018-03-08T12:19:23.693Z,11.00
2018-03-08T12:20:23.888Z,10.95
2018-03-08T12:21:23.463Z,11.06
2018-03-08T12:22:23.458Z,10.97
2018-03-08T12:23:23.410Z,10.94
2018-03-08T12:24:23.413Z,10.87
2018-03-08T12:25:23.786Z,10.88
2018-03-08T12:26:23.485Z,10.69
2018-03-08T12:27:23.396Z,10.67
2018-03-08T12:28:23.360Z,10.61
2018-03-08T12:29:23.382Z,10.57
2018-03-08T12:30:23.391Z,10.57
2018-03-08T12:31:23.548Z,10.46
2018-03-08T12:32:23.611Z,10.23
2018-03-08T12:33:23.343Z,10.26
2018-03-08T12:34:23.009Z,10.26
2018-03-08T12:35:22.933Z,10.25
2018-03-08T12:36:22.953Z,10.33
2018-03-08T12:37:22.881Z,10.35
2018-03-08T12:38:23.084Z,10.35
2018-03-08T12:39:22.821Z,10.41
2018-03-08T12:40:22.841Z,10.41
2018-03-08T12:41:22.820Z,10.41
2018-03-08T12:42:22.771Z,10.46
2018-03-08T12:43:22.732Z,10.42
2018-03-08T12:44:22.685Z,10.38
2018-03-08T12:45:22.674Z,10.25
2018-03-08T12:46:22.668Z,10.29
2018-03-08T12:47:22.610Z,10.28
2018-03-08T12:48:22.624Z,10.25
2018-03-08T12:49:22.552Z,10.28
2018-03-08T12:50:22.533Z,10.23
2018-03-08T12:51:22.526Z,10.08
2018-03-08T12:52:22.497Z,10.08
2018-03-08T12:53:22.463Z,10.05
2018-03-08T12:54:22.439Z,10.02
2018-03-08T12:55:22.421Z,10.13
2018-03-08T12:56:22.427Z,10.15
2018-03-08T12:57:22.415Z,10.26
2018-03-08T12:58:22.378Z,10.25
2018-03-08T12:59:22.305Z,10.02
2018-03-08T13:00:22.333Z,9.98
2018-03-08T13:01:22.272Z,9.95
2018-03-08T13:02:22.294Z,10.00
2018-03-08T13:03:22.199Z,9.98
2018-03-08T13:04:22.192Z,9.95
2018-03-08T13:05:22.151Z,10.03
2018-03-08T13:06:22.134Z,10.00
2018-03-08T13:07:22.118Z,10.08
2018-03-08T13:08:22.056Z,10.05
2018-03-08T13:09:22.100Z,9.93
2018-03-08T13:10:22.079Z,10.00
2018-03-08T13:11:22.048Z,9.89
2018-03-08T13:12:22.078Z,9.77
2018-03-08T13:13:21.983Z,9.82
2018-03-08T13:14:21.935Z,9.82
2018-03-08T13:15:21.936Z,9.75
2018-03-08T13:16:21.891Z,9.72
2018-03-08T13:17:21.886Z,9.70